Burrville, Tennessee
Current Conditions -  °F | °C
As of 9:53 PM on Tuesday 25 Nov 2014 (Local Time) from KCSV Reporting Station
Clear Clear  
Wind Chill: 43°   Ceiling: Unl
Heat Index: 43°   Visibility: 10mi
Dew Point: 28°   Wind: 0mph
Humidity: 56%   Direction: NA
Pressure: 30.11"   Gusts: NA
Location:  36.273°N, 84.7037°W
Report Text: KCSV 260253Z AUTO 00000KT 10SM CLR 06/M02 A3011 RMK AO2 SLP198 T00611022 51014
Loading
Personal Weather Stations






























Interactive Weather Map New forecast layout! Learn more

10-Day Weather Forecast

Advertisements
Track Severe Weather on mobile